Wallington, NJ (07057)

3:47 AM EST on December 19, 2014 (GMT -0500)
Wallington Weather Station Gaweda | Change Station
CLOSE
Current Station
Personal Weather Station
Location: Wallington, NJ
Elevation: 23 ft
Nearby Weather Stations

Elev 23 ft 40.85 °N, 74.11 °W | Updated 18 seconds ago

Mostly Cloudy
Mostly Cloudy
36.0 °F
Feels Like 32 °F
N
5.0
Wind Variable Wind from WNW
Gusts 10.0 mph

Today
High -- | Low -- °F
--% Chance of Precip.
Yesterday
High -- | Low -- °F
Precip. -- in
7:16 AM 4:30 PM
Waning Crescent, 9% visible
Pressure 29.98 in
Visibility 10.0 miles
Clouds Mostly Cloudy 5000 ft
Windchill 32 °F
Dew Point 28 °F
Humidity 71%
Rainfall 0.00 in
Snow Depth Not available.
UV 0 out of 12
Pollen .10 out of 12
Air Quality Not available.
Flu Activity Not available.
METAR KTEB 190751Z 32007KT 10SM BKN050 02/M04 A2997 RMK AO2 SLP150 T00221044

More Conditions Fewer Conditions

Pressure 29.98 in
Visibility 10.0 miles
Clouds Mostly Cloudy 5000 ft
Windchill 32 °F
Dew Point 28 °F
Humidity 71%
Rainfall 0.00 in
Snow Depth Not available.
UV 0 out of 12
Pollen .10 out of 12
Air Quality Not available.
Flu Activity Not available.
METAR KTEB 190751Z 32007KT 10SM BKN050 02/M04 A2997 RMK AO2 SLP150 T00221044

More Conditions Fewer Conditions

10-Day Weather Forecast

Almanac

Astronomy

Dec. 19, 2014 Rise Set
Actual Time
Civil Twilight
Nautical Twilight
Astronomical Twilight
Moon
Length of Visible Light
Length of Day
Tomorrow will be .
, % of the Moon is Illuminated

Today's Extremes

State Highs State Lows

Community

WunderPhotos

Upload Photos

1,778,953 photos uploaded!

WunderBlogs® & News

Nearby

Air Quality

  Air Quality AQ Index Pollutant
Not available.

Snow Depth

Station Depth Elevation

Earthquake Activity

City Distance Mag. Time & Date
Minimum magnitude displayed is 2.5.

Coastal Water Temperatures

Place Temperature

Nearby Weather Stations